Time;durP1;ratioP1;P1;durP2;ratioP2;P2;SDS_P1;SDS_P2;PMS_P1;PMS_P2;Temp;Humidity;BMP_temperature;BMP_pressure;BME280_temperature;BME280_humidity;BME280_pressure;Samples;Min_cycle;Max_cycle;Signal;HPM_P1;HPM_P2
2022/07/15 00:00:32;;;;;;;11.30;3.10;;;;;;;14.53;70.58;102184.28;5072806;28;20556;-79
2022/07/15 00:02:58;;;;;;;9.55;2.85;;;;;;;14.60;70.20;102182.91;5073287;28;20289;-80
2022/07/15 00:05:25;;;;;;;8.52;2.63;;;;;;;14.50;70.29;102180.00;5073096;28;20111;-80
2022/07/15 00:07:51;;;;;;;11.82;3.08;;;;;;;14.48;70.66;102183.78;5069881;28;20103;-79
2022/07/15 00:10:20;;;;;;;5.55;2.50;;;;;;;14.43;70.49;102186.78;5060025;28;20013;-79
2022/07/15 00:12:49;;;;;;;11.15;2.90;;;;;;;14.36;70.61;102185.50;5072841;28;20043;-80
2022/07/15 00:15:16;;;;;;;9.55;3.70;;;;;;;14.35;70.58;102189.97;5072295;28;20119;-80
2022/07/15 00:17:42;;;;;;;7.35;2.72;;;;;;;14.33;70.62;102183.06;5071921;28;20089;-79
2022/07/15 00:20:09;;;;;;;5.53;2.65;;;;;;;14.21;71.33;102188.28;5068317;28;20032;-79
2022/07/15 00:22:35;;;;;;;9.90;3.10;;;;;;;14.28;70.69;102187.88;5061698;28;20027;-80
2022/07/15 00:25:00;;;;;;;8.43;2.65;;;;;;;14.18;71.28;102196.53;5052426;28;20032;-80
2022/07/15 00:27:26;;;;;;;9.13;2.88;;;;;;;14.21;70.77;102187.44;5065482;28;20029;-80
2022/07/15 00:29:51;;;;;;;9.93;3.10;;;;;;;14.07;70.91;102183.06;5059096;28;20108;-79
2022/07/15 00:32:17;;;;;;;7.68;2.78;;;;;;;14.06;71.26;102184.03;5073363;28;20017;-79
2022/07/15 00:34:42;;;;;;;8.35;2.83;;;;;;;13.93;71.82;102184.03;5072588;28;20125;-80
2022/07/15 00:37:07;;;;;;;10.70;2.97;;;;;;;13.95;71.67;102189.28;5051272;28;20021;-80
2022/07/15 00:39:33;;;;;;;8.98;2.88;;;;;;;13.93;71.97;102186.69;5072895;28;20121;-80
2022/07/15 00:41:59;;;;;;;9.25;3.08;;;;;;;13.90;72.01;102180.72;5073214;28;20541;-80
2022/07/15 00:44:25;;;;;;;9.20;3.10;;;;;;;13.87;72.01;102182.66;5063058;28;20017;-79
2022/07/15 00:46:52;;;;;;;5.88;3.28;;;;;;;13.84;72.08;102182.00;5072601;28;20028;-80
2022/07/15 00:49:17;;;;;;;11.75;3.05;;;;;;;13.86;72.12;102190.78;5072402;28;20055;-80
2022/07/15 00:51:54;;;;;;;7.55;3.10;;;;;;;13.81;72.03;102184.91;5133895;22;20052;-83
2022/07/15 00:54:24;;;;;;;9.85;3.00;;;;;;;13.79;72.53;102181.44;5096075;28;20387;-83
2022/07/15 00:56:53;;;;;;;9.70;2.95;;;;;;;13.76;71.94;102174.53;5075616;28;20031;-84
2022/07/15 00:59:22;;;;;;;10.23;3.30;;;;;;;13.76;72.82;102182.53;5090022;28;20024;-84
2022/07/15 01:01:48;;;;;;;9.93;3.60;;;;;;;13.70;72.51;102180.28;5064246;28;20445;-84
2022/07/15 01:04:14;;;;;;;12.20;3.22;;;;;;;13.67;72.64;102186.69;5077020;28;20032;-84
2022/07/15 01:06:40;;;;;;;7.75;3.00;;;;;;;13.66;73.13;102182.31;5087212;28;20029;-84
2022/07/15 01:09:06;;;;;;;12.88;3.50;;;;;;;13.63;73.07;102177.16;5083853;28;20102;-83
2022/07/15 01:11:32;;;;;;;7.88;3.10;;;;;;;13.63;72.99;102177.16;5075396;28;20078;-83
2022/07/15 01:13:58;;;;;;;8.27;3.22;;;;;;;13.63;73.14;102171.84;5083224;28;20032;-83
2022/07/15 01:16:24;;;;;;;8.25;3.03;;;;;;;13.56;72.83;102167.88;5091345;28;20024;-83
2022/07/15 01:18:50;;;;;;;10.98;3.10;;;;;;;13.59;73.00;102165.00;5092041;28;20024;-84
2022/07/15 01:21:15;;;;;;;7.32;3.25;;;;;;;13.57;73.54;102176.72;5091574;28;20429;-83
2022/07/15 01:23:42;;;;;;;9.25;3.08;;;;;;;13.54;73.54;102174.25;5091528;28;20480;-83
2022/07/15 01:26:09;;;;;;;7.20;2.78;;;;;;;13.54;72.89;102177.81;5085735;28;20035;-82
2022/07/15 01:28:34;;;;;;;11.57;3.38;;;;;;;13.46;73.43;102181.00;5075437;28;20388;-83
2022/07/15 01:31:02;;;;;;;7.85;3.05;;;;;;;13.40;73.52;102181.41;5084489;28;20020;-83
2022/07/15 01:33:27;;;;;;;9.10;3.05;;;;;;;13.40;73.95;102184.06;5091201;28;20079;-84
2022/07/15 01:35:56;;;;;;;8.90;3.63;;;;;;;13.32;73.93;102192.59;5096503;28;20462;-84
2022/07/15 01:38:21;;;;;;;12.13;3.20;;;;;;;13.32;74.02;102195.28;5097161;28;20278;-84
2022/07/15 01:40:48;;;;;;;9.65;2.92;;;;;;;13.25;74.36;102191.25;5097175;28;20153;-83
2022/07/15 01:43:13;;;;;;;9.00;3.15;;;;;;;13.25;74.28;102190.41;5084505;28;20036;-84
2022/07/15 01:45:43;;;;;;;9.90;3.17;;;;;;;13.19;74.42;102196.13;5096621;28;20028;-84
2022/07/15 01:49:21;;;;;;;9.80;3.40;;;;;;;13.16;74.43;102191.03;5088145;28;20072;-84
2022/07/15 01:50:54;;;;;;;7.43;3.47;;;;;;;13.10;74.33;102198.44;5076612;28;20035;-84
2022/07/15 01:53:19;;;;;;;8.48;3.28;;;;;;;13.08;74.26;102197.69;5089023;28;20019;-84
2022/07/15 01:55:44;;;;;;;6.60;2.90;;;;;;;13.05;74.53;102194.38;5091023;28;20375;-84
2022/07/15 01:58:09;;;;;;;9.40;3.37;;;;;;;13.05;75.01;102192.56;5086679;28;20288;-84
2022/07/15 02:00:35;;;;;;;7.20;3.45;;;;;;;13.03;75.12;102196.31;5094636;28;20351;-84
2022/07/15 02:03:00;;;;;;;8.18;3.40;;;;;;;13.02;75.12;102202.59;5084348;28;20091;-84
2022/07/15 02:05:26;;;;;;;10.95;4.00;;;;;;;13.02;74.88;102197.25;5078669;28;20078;-84
2022/07/15 02:07:51;;;;;;;8.40;3.72;;;;;;;13.04;74.75;102200.66;5082606;28;20024;-84
2022/07/15 02:10:16;;;;;;;11.05;4.70;;;;;;;12.95;75.25;102197.63;5089867;28;20036;-83
2022/07/15 02:12:42;;;;;;;9.50;4.35;;;;;;;12.96;75.25;102196.69;5096746;28;20017;-84
2022/07/15 02:15:07;;;;;;;10.95;4.00;;;;;;;12.92;75.90;102202.31;5096411;28;20101;-84
2022/07/15 02:17:32;;;;;;;12.23;4.20;;;;;;;12.92;75.76;102197.00;5095395;28;20463;-83
2022/07/15 02:19:58;;;;;;;8.57;3.35;;;;;;;12.94;75.60;102187.09;5079514;28;20556;-84
2022/07/15 02:22:23;;;;;;;7.70;3.40;;;;;;;12.90;75.29;102182.91;5077211;28;20039;-83
2022/07/15 02:24:48;;;;;;;8.90;3.80;;;;;;;12.88;75.14;102185.66;5081354;28;20027;-83
2022/07/15 02:27:14;;;;;;;10.50;3.57;;;;;;;12.89;75.06;102189.19;5074714;28;20286;-83
2022/07/15 02:29:39;;;;;;;10.80;4.07;;;;;;;12.84;75.27;102188.63;5094548;28;20290;-83
2022/07/15 02:32:05;;;;;;;14.07;3.78;;;;;;;12.81;75.48;102187.03;5096442;28;20378;-83
2022/07/15 02:34:31;;;;;;;12.02;4.60;;;;;;;12.80;75.44;102182.66;5096195;28;20024;-83
2022/07/15 02:36:56;;;;;;;10.02;3.80;;;;;;;12.75;75.74;102193.59;5078106;28;20368;-83
2022/07/15 02:39:21;;;;;;;10.85;4.10;;;;;;;12.75;76.21;102193.59;5090809;28;20036;-84
2022/07/15 02:41:47;;;;;;;9.43;3.90;;;;;;;12.73;75.86;102184.84;5083108;28;20071;-84
2022/07/15 02:44:14;;;;;;;9.10;3.30;;;;;;;12.69;75.32;102194.00;5096582;28;20550;-83
2022/07/15 02:46:39;;;;;;;7.45;3.35;;;;;;;12.66;75.88;102199.53;5089678;28;20028;-84
2022/07/15 02:49:04;;;;;;;7.28;3.50;;;;;;;12.61;76.50;102201.63;5084690;28;20158;-83
2022/07/15 02:51:30;;;;;;;12.18;3.47;;;;;;;12.55;76.08;102196.69;5090739;28;20094;-83
2022/07/15 02:53:55;;;;;;;7.82;3.78;;;;;;;12.62;76.40;102200.66;5096524;28;20031;-83
2022/07/15 02:56:20;;;;;;;9.70;4.03;;;;;;;12.64;76.20;102200.56;5095585;28;20024;-83
2022/07/15 02:58:45;;;;;;;11.30;3.70;;;;;;;12.64;76.38;102204.13;5095765;28;20482;-83
2022/07/15 03:01:11;;;;;;;9.27;3.88;;;;;;;12.66;76.01;102207.53;5086918;28;20099;-83
2022/07/15 03:03:36;;;;;;;9.32;4.00;;;;;;;12.57;76.58;102208.97;5091722;28;20039;-83
2022/07/15 03:06:01;;;;;;;7.17;3.77;;;;;;;12.63;76.58;102220.19;5083710;28;20029;-83
2022/07/15 03:08:27;;;;;;;10.07;3.78;;;;;;;12.59;77.02;102227.53;5075514;28;20287;-83
2022/07/15 03:10:52;;;;;;;9.48;3.45;;;;;;;12.56;77.27;102225.91;5080347;28;20019;-83
2022/07/15 03:13:18;;;;;;;9.95;3.78;;;;;;;12.51;77.30;102224.50;5095127;28;20035;-83
2022/07/15 03:15:43;;;;;;;9.57;3.80;;;;;;;12.53;77.30;102226.09;5095123;28;20367;-83
2022/07/15 03:18:08;;;;;;;8.95;3.80;;;;;;;12.53;77.29;102220.78;5074141;28;20360;-83
2022/07/15 03:20:33;;;;;;;10.83;4.07;;;;;;;12.52;77.08;102223.53;5075604;28;20024;-83
2022/07/15 03:22:59;;;;;;;8.23;3.67;;;;;;;12.53;77.04;102231.44;5091951;28;20290;-82
2022/07/15 03:25:24;;;;;;;12.15;3.85;;;;;;;12.44;76.56;102232.03;5094533;28;20032;-83
2022/07/15 03:27:50;;;;;;;8.23;3.63;;;;;;;12.43;76.53;102232.97;5077126;28;20056;-84
2022/07/15 03:30:15;;;;;;;5.55;3.38;;;;;;;12.45;76.98;102232.88;5085559;28;20522;-83
2022/07/15 03:32:41;;;;;;;8.70;4.10;;;;;;;12.40;77.59;102233.16;5081421;28;20017;-83
2022/07/15 03:35:06;;;;;;;5.43;3.47;;;;;;;12.42;77.68;102238.38;5092175;28;20032;-85
2022/07/15 03:37:32;;;;;;;11.65;3.80;;;;;;;12.41;77.87;102245.53;5095291;28;20047;-83
2022/07/15 03:39:57;;;;;;;8.18;3.83;;;;;;;12.43;77.64;102238.28;5081216;28;20120;-83
2022/07/15 03:42:23;;;;;;;9.77;4.10;;;;;;;12.42;78.02;102236.56;5095269;28;20024;-84
2022/07/15 03:44:51;;;;;;;9.00;3.38;;;;;;;12.44;77.87;102239.13;5095465;28;20039;-83
2022/07/15 03:47:16;;;;;;;11.65;4.35;;;;;;;12.44;78.25;102241.81;5077272;28;20030;-84
2022/07/15 03:49:42;;;;;;;11.10;3.92;;;;;;;12.45;78.03;102249.72;5095233;28;20533;-84
2022/07/15 03:52:07;;;;;;;8.40;3.70;;;;;;;12.46;78.32;102255.91;5087148;28;20537;-84
2022/07/15 03:54:33;;;;;;;11.23;3.60;;;;;;;12.46;78.57;102253.25;5095206;28;20444;-84
2022/07/15 03:56:58;;;;;;;11.05;3.75;;;;;;;12.45;78.43;102257.69;5095054;28;20054;-84
2022/07/15 03:59:23;;;;;;;13.57;3.95;;;;;;;12.50;78.36;102258.25;5095118;28;20099;-84
2022/07/15 04:01:49;;;;;;;8.20;3.80;;;;;;;12.54;78.48;102262.47;5094869;28;20032;-84
2022/07/15 04:04:15;;;;;;;15.60;4.30;;;;;;;12.50;78.60;102260.94;5076744;28;20024;-84
2022/07/15 04:06:40;;;;;;;9.68;3.85;;;;;;;12.54;78.70;102259.81;5095150;28;20079;-84
2022/07/15 04:09:07;;;;;;;11.70;4.18;;;;;;;12.57;79.19;102258.75;5094785;28;20048;-84
2022/07/15 04:11:32;;;;;;;7.60;3.85;;;;;;;12.60;79.27;102261.22;5094921;28;20348;-84
2022/07/15 04:13:58;;;;;;;7.57;3.55;;;;;;;12.64;79.00;102261.88;5094275;28;20073;-84
2022/07/15 04:16:23;;;;;;;8.55;3.97;;;;;;;12.65;79.38;102268.94;5095055;28;20012;-84
2022/07/15 04:18:51;;;;;;;9.00;4.18;;;;;;;12.71;79.31;102261.41;5082985;28;20111;-84
2022/07/15 04:21:16;;;;;;;11.30;4.10;;;;;;;12.75;79.21;102264.72;5094846;28;20121;-84
2022/07/15 04:23:41;;;;;;;9.73;3.70;;;;;;;12.77;79.67;102260.16;5094844;28;20039;-83
2022/07/15 04:26:07;;;;;;;10.95;3.92;;;;;;;12.82;79.52;102255.38;5095035;28;20106;-83
2022/07/15 04:28:32;;;;;;;13.85;3.70;;;;;;;12.88;79.81;102260.34;5094480;28;20447;-84
2022/07/15 04:30:57;;;;;;;13.27;4.32;;;;;;;12.92;79.63;102259.19;5094349;28;20477;-84
2022/07/15 04:33:23;;;;;;;10.83;4.17;;;;;;;12.98;79.34;102263.28;5094655;28;20031;-84
2022/07/15 04:35:48;;;;;;;13.38;4.40;;;;;;;12.98;79.47;102263.28;5094949;28;20285;-85
2022/07/15 04:38:14;;;;;;;10.00;3.88;;;;;;;13.06;78.79;102268.97;5077233;28;20028;-85
2022/07/15 04:40:40;;;;;;;9.00;4.28;;;;;;;13.11;78.50;102268.69;5094442;28;20501;-84
2022/07/15 04:43:06;;;;;;;10.55;3.78;;;;;;;13.16;78.78;102268.41;5076149;28;20043;-84
2022/07/15 04:45:32;;;;;;;10.40;3.97;;;;;;;13.20;79.03;102273.41;5094026;28;20060;-84
2022/07/15 04:47:57;;;;;;;13.30;4.30;;;;;;;13.26;78.59;102275.69;5094270;28;20063;-84
2022/07/15 04:53:07;;;;;;;9.98;4.10;;;;;;;13.36;77.98;102273.31;5092601;28;20067;-84
2022/07/15 04:55:33;;;;;;;10.38;4.25;;;;;;;13.39;78.08;102272.22;5093900;28;20036;-84
2022/07/15 04:57:59;;;;;;;8.40;3.90;;;;;;;13.47;78.19;102275.25;5093745;28;20104;-84
2022/07/15 05:00:24;;;;;;;10.35;3.65;;;;;;;13.53;77.94;102271.34;5093795;28;20051;-83
2022/07/15 05:02:50;;;;;;;8.73;4.32;;;;;;;13.56;77.49;102279.16;5079069;28;20471;-83
2022/07/15 05:05:15;;;;;;;8.60;4.53;;;;;;;13.61;77.18;102275.22;5100670;28;20443;-83
2022/07/15 05:07:41;;;;;;;7.63;4.07;;;;;;;13.63;77.55;102269.75;5100584;28;20039;-84
2022/07/15 05:10:08;;;;;;;8.07;3.97;;;;;;;13.68;77.56;102278.31;5100567;28;20055;-83
2022/07/15 05:12:34;;;;;;;10.02;3.88;;;;;;;13.69;77.15;102277.38;5101051;28;20031;-83
2022/07/15 05:14:59;;;;;;;10.20;4.15;;;;;;;13.73;77.14;102276.19;5082137;28;20466;-83
2022/07/15 05:17:25;;;;;;;8.52;4.38;;;;;;;13.79;77.33;102282.94;5082102;28;20035;-83
2022/07/15 05:19:51;;;;;;;12.70;4.63;;;;;;;13.84;76.76;102279.00;5082280;28;20050;-83
2022/07/15 05:22:17;;;;;;;7.82;3.92;;;;;;;13.82;76.99;102272.91;5100009;28;20028;-83
2022/07/15 05:24:43;;;;;;;9.25;3.92;;;;;;;13.87;76.59;102280.59;5100200;28;20044;-83
2022/07/15 05:27:08;;;;;;;9.55;4.32;;;;;;;13.89;76.55;102278.69;5101357;28;20027;-84
2022/07/15 05:29:33;;;;;;;10.73;4.43;;;;;;;13.91;76.72;102276.78;5100728;28;20051;-83
2022/07/15 05:31:59;;;;;;;13.23;4.18;;;;;;;13.97;76.44;102275.50;5083068;28;20840;-83
2022/07/15 05:34:24;;;;;;;10.65;4.97;;;;;;;14.03;76.80;102281.25;5101361;28;20111;-83
2022/07/15 05:36:49;;;;;;;9.02;4.10;;;;;;;14.16;76.39;102270.59;5100366;28;20028;-83
2022/07/15 05:39:15;;;;;;;8.57;4.40;;;;;;;14.35;75.89;102275.50;5100406;28;20085;-83
2022/07/15 05:41:40;;;;;;;11.55;4.22;;;;;;;14.52;75.52;102281.50;5099944;28;20027;-83
2022/07/15 05:44:05;;;;;;;10.50;4.03;;;;;;;14.76;75.10;102278.94;5100524;28;20035;-83
2022/07/15 05:46:31;;;;;;;12.45;4.45;;;;;;;14.97;74.08;102272.06;5100114;28;20055;-83
2022/07/15 05:48:56;;;;;;;12.10;4.30;;;;;;;15.17;73.66;102273.28;5100580;28;20032;-83
2022/07/15 05:51:21;;;;;;;11.50;4.32;;;;;;;15.37;72.78;102270.94;5100568;28;20138;-83
2022/07/15 05:53:47;;;;;;;10.85;4.20;;;;;;;15.60;72.08;102268.34;5100105;28;20122;-84
2022/07/15 05:56:12;;;;;;;11.60;5.03;;;;;;;15.77;71.76;102267.97;5100305;28;20471;-83
2022/07/15 05:58:37;;;;;;;9.02;3.47;;;;;;;15.96;70.80;102267.41;5100278;28;20028;-83
2022/07/15 06:01:04;;;;;;;8.48;3.67;;;;;;;16.26;69.90;102266.00;5098010;28;20022;-83
2022/07/15 06:03:29;;;;;;;10.52;3.45;;;;;;;16.36;69.47;102267.00;5100791;28;20047;-83
2022/07/15 06:05:55;;;;;;;9.23;3.60;;;;;;;16.61;68.39;102270.41;5099645;28;20024;-83
2022/07/15 06:08:20;;;;;;;7.65;3.25;;;;;;;16.76;67.67;102271.03;5100165;28;20024;-84
2022/07/15 06:10:46;;;;;;;7.53;3.13;;;;;;;16.96;67.12;102270.28;5099798;28;20040;-84
2022/07/15 06:13:12;;;;;;;12.65;3.47;;;;;;;17.19;66.64;102265.72;5099777;28;20023;-82
2022/07/15 06:15:38;;;;;;;8.43;3.10;;;;;;;17.39;65.62;102261.41;5095618;28;20059;-84
2022/07/15 06:18:03;;;;;;;17.83;3.33;;;;;;;17.62;65.20;102258.63;5096584;28;20056;-83
2022/07/15 06:20:29;;;;;;;12.18;3.35;;;;;;;17.89;64.58;102268.91;5096968;28;20386;-84
2022/07/15 06:22:54;;;;;;;8.57;2.78;;;;;;;18.09;63.68;102266.34;5097862;28;20063;-85
2022/07/15 06:25:23;;;;;;;8.33;2.67;;;;;;;18.21;61.85;102262.56;5098193;28;20032;-86
2022/07/15 06:27:48;;;;;;;7.35;3.00;;;;;;;18.41;62.38;102268.91;5079428;28;20783;-84
2022/07/15 06:30:14;;;;;;;7.03;2.75;;;;;;;18.55;61.91;102262.34;5099053;28;20024;-87
2022/07/15 06:32:39;;;;;;;7.85;2.67;;;;;;;18.70;59.53;102261.94;5081536;28;20020;-87
2022/07/15 06:35:05;;;;;;;7.35;2.42;;;;;;;19.00;58.96;102270.03;5088789;28;20025;-87
2022/07/15 06:37:34;;;;;;;7.20;2.85;;;;;;;19.20;59.36;102262.81;5082212;28;20534;-87
2022/07/15 06:39:59;;;;;;;6.67;2.00;;;;;;;19.32;57.04;102263.53;5105024;28;20076;-87
2022/07/15 06:42:25;;;;;;;9.30;2.00;;;;;;;19.47;55.50;102263.09;5102128;28;20024;-87
2022/07/15 06:44:58;;;;;;;5.82;1.70;;;;;;;19.59;55.45;102257.44;5105895;28;20024;-86
2022/07/15 06:47:26;;;;;;;3.63;1.25;;;;;;;19.86;55.92;102263.13;5100874;28;20038;-87
2022/07/15 06:49:54;;;;;;;4.45;1.58;;;;;;;20.08;55.29;102256.56;5103649;28;20027;-87
2022/07/15 06:52:27;;;;;;;7.82;1.73;;;;;;;20.31;54.83;102262.47;5094372;28;20048;-88
2022/07/15 06:54:53;;;;;;;9.50;1.73;;;;;;;20.28;52.76;102257.34;5083632;28;20023;-86
2022/07/15 06:57:18;;;;;;;7.40;1.58;;;;;;;20.51;52.46;102255.13;5094551;28;20028;-87
2022/07/15 06:59:44;;;;;;;4.18;1.25;;;;;;;20.73;51.94;102262.03;5098167;28;20355;-87
2022/07/15 07:02:09;;;;;;;6.43;1.65;;;;;;;20.96;51.29;102251.66;5097733;28;20101;-82
2022/07/15 07:04:35;;;;;;;4.43;1.30;;;;;;;21.18;50.68;102255.81;5087733;28;20427;-84
2022/07/15 07:07:00;;;;;;;3.72;1.30;;;;;;;21.44;50.39;102260.44;5094410;28;20023;-84
2022/07/15 07:09:26;;;;;;;3.28;1.00;;;;;;;21.57;48.56;102260.91;5086845;28;20028;-85
2022/07/15 07:11:52;;;;;;;4.95;1.33;;;;;;;21.61;47.25;102256.88;5094149;28;20107;-84
2022/07/15 07:14:19;;;;;;;3.80;1.30;;;;;;;21.77;45.26;102263.44;5062976;28;20024;-84
2022/07/15 07:16:50;;;;;;;5.72;1.42;;;;;;;22.06;45.81;102273.13;5097907;28;20032;-85
2022/07/15 07:19:18;;;;;;;5.32;1.00;;;;;;;22.14;44.53;102270.47;5096640;28;20117;-85
2022/07/15 07:21:44;;;;;;;4.32;0.98;;;;;;;22.29;44.58;102268.91;5098559;28;20024;-86
2022/07/15 07:24:10;;;;;;;5.15;0.93;;;;;;;22.37;44.77;102273.53;5098422;28;20382;-84
2022/07/15 07:26:37;;;;;;;5.22;1.05;;;;;;;22.53;42.45;102275.44;5104453;28;20027;-87
2022/07/15 07:29:03;;;;;;;8.18;1.48;;;;;;;22.53;43.86;102272.75;5107261;28;20023;-86
2022/07/15 07:31:28;;;;;;;2.92;1.10;;;;;;;22.83;42.65;102268.66;5105232;28;20020;-87
2022/07/15 07:33:56;;;;;;;4.53;1.10;;;;;;;23.08;42.28;102272.31;5109030;28;20080;-85
2022/07/15 07:36:21;;;;;;;3.50;1.00;;;;;;;23.25;42.06;102278.63;5102541;28;20035;-86
2022/07/15 07:38:47;;;;;;;3.08;0.93;;;;;;;23.42;41.35;102274.06;5079620;28;20032;-86
2022/07/15 07:41:16;;;;;;;5.10;2.17;;;;;;;23.62;41.44;102271.03;5101931;28;20039;-86
2022/07/15 07:43:41;;;;;;;;;;;;;;;24.02;45.37;102282.91;5086096;28;20394;-87
2022/07/15 07:46:06;;;;;;;4.77;1.37;;;;;;;23.92;39.47;102283.09;5093427;28;19956;-84
2022/07/15 07:48:32;;;;;;;3.20;0.90;;;;;;;23.82;39.15;102279.72;5100963;28;20044;-86
2022/07/15 07:50:58;;;;;;;2.90;0.90;;;;;;;23.97;38.93;102272.56;5084329;28;20394;-86
2022/07/15 07:53:23;;;;;;;5.63;1.23;;;;;;;24.28;37.37;102279.97;5073349;28;20060;-84
2022/07/15 07:55:50;;;;;;;5.35;1.00;;;;;;;24.22;38.09;102274.41;5098769;28;20036;-85
2022/07/15 07:58:16;;;;;;;4.80;1.15;;;;;;;24.43;38.54;102277.41;5093622;28;20432;-85
2022/07/15 08:00:44;;;;;;;5.70;1.23;;;;;;;24.53;38.55;102277.16;5104795;28;20024;-85
2022/07/15 08:03:10;;;;;;;3.63;1.08;;;;;;;24.94;37.73;102271.59;5104075;28;20135;-85
2022/07/15 08:05:35;;;;;;;8.38;1.20;;;;;;;25.06;37.47;102272.91;5072212;28;20483;-84
2022/07/15 08:08:07;;;;;;;3.70;0.90;;;;;;;25.09;37.12;102268.97;5104443;28;20020;-85
2022/07/15 08:10:33;;;;;;;3.95;1.00;;;;;;;25.28;37.17;102273.97;5108224;28;20020;-84
2022/07/15 08:13:00;;;;;;;6.38;1.33;;;;;;;25.41;36.66;102269.78;5097456;28;20046;-85
2022/07/15 08:15:26;;;;;;;8.43;1.60;;;;;;;25.76;36.29;102286.53;5109381;28;20038;-84
2022/07/15 08:17:51;;;;;;;4.50;1.05;;;;;;;25.78;35.92;102268.13;5119540;28;20019;-84
2022/07/15 08:20:17;;;;;;;5.20;1.17;;;;;;;25.97;35.64;102273.09;5127552;28;20031;-84
2022/07/15 08:22:43;;;;;;;7.40;1.23;;;;;;;25.98;35.31;102273.91;5113046;28;20051;-84
2022/07/15 08:25:08;;;;;;;6.70;1.53;;;;;;;25.95;35.19;102277.00;5098871;28;20025;-84
2022/07/15 08:27:34;;;;;;;4.88;1.33;;;;;;;26.21;35.93;102284.75;5106828;28;20648;-85
2022/07/15 08:29:59;;;;;;;3.38;1.02;;;;;;;26.19;33.59;102279.47;5119360;28;20381;-84
2022/07/15 08:32:24;;;;;;;5.22;1.27;;;;;;;26.56;33.91;102277.72;5116414;28;20458;-86
2022/07/15 08:34:50;;;;;;;6.70;1.10;;;;;;;26.45;33.42;102280.91;5103512;28;20095;-85
2022/07/15 08:37:16;;;;;;;5.45;0.95;;;;;;;26.50;33.11;102283.09;5090867;28;20023;-85
2022/07/15 08:39:41;;;;;;;4.88;1.40;;;;;;;26.85;33.09;102286.91;5084137;28;20031;-85
2022/07/15 08:42:07;;;;;;;4.95;1.13;;;;;;;26.83;33.67;102266.31;5078260;28;20236;-85
2022/07/15 08:44:32;;;;;;;3.88;1.20;;;;;;;26.91;32.60;102268.94;5090039;28;20016;-84
2022/07/15 08:47:02;;;;;;;5.10;1.27;;;;;;;27.14;33.78;102264.16;5092813;28;20103;-85
2022/07/15 08:49:34;;;;;;;5.65;1.08;;;;;;;27.41;32.16;102264.50;5076543;28;20107;-85
2022/07/15 08:52:03;;;;;;;7.07;1.52;;;;;;;27.38;31.15;102264.00;5078454;28;20123;-85
2022/07/15 08:54:29;;;;;;;2.85;0.88;;;;;;;27.57;31.41;102262.53;5104474;28;20044;-84
2022/07/15 08:56:54;;;;;;;3.78;1.00;;;;;;;27.64;30.27;102271.59;5102879;28;20023;-83
2022/07/15 08:59:26;;;;;;;4.63;1.13;;;;;;;27.87;31.41;102266.75;5099412;28;20056;-84
2022/07/15 09:01:53;;;;;;;4.93;1.23;;;;;;;27.84;30.32;102255.38;5073064;28;20024;-83
2022/07/15 09:04:18;;;;;;;4.55;1.00;;;;;;;27.96;30.31;102267.50;5093329;28;20023;-82
2022/07/15 09:06:51;;;;;;;3.47;0.82;;;;;;;28.13;30.66;102262.56;5097434;28;20553;-83
2022/07/15 09:09:28;;;;;;;5.07;1.20;;;;;;;28.38;31.37;102259.34;5089232;28;20036;-83
2022/07/15 09:11:55;;;;;;;4.43;1.10;;;;;;;28.53;29.36;102259.22;5093608;28;20026;-82
2022/07/15 09:14:21;;;;;;;2.60;0.88;;;;;;;28.69;29.26;102252.56;5103221;28;20045;-83
2022/07/15 09:16:47;;;;;;;2.80;1.02;;;;;;;28.82;30.00;102254.53;5088547;28;20024;-82
2022/07/15 09:19:12;;;;;;;5.25;0.90;;;;;;;28.76;29.22;102250.69;5096461;28;20149;-83
2022/07/15 09:21:42;;;;;;;5.13;1.00;;;;;;;29.08;29.51;102248.28;5097545;28;20035;-83
2022/07/15 09:24:17;;;;;;;2.78;1.00;;;;;;;29.00;30.40;102243.84;5097099;28;20035;-83
2022/07/15 09:26:43;;;;;;;2.00;1.08;;;;;;;29.12;27.68;102249.56;5097098;28;20024;-82
2022/07/15 09:35:04;;;;;;;3.63;1.20;;;;;;;29.21;29.15;102256.56;5089086;28;20513;-83
2022/07/15 09:37:30;;;;;;;4.82;1.25;;;;;;;29.02;26.95;102262.78;5098605;28;20039;-83
2022/07/15 09:39:57;;;;;;;4.30;0.80;;;;;;;29.04;27.67;102247.84;5091635;28;20107;-85
2022/07/15 09:42:23;;;;;;;2.92;0.93;;;;;;;29.44;27.89;102247.09;5102390;28;20138;-87
2022/07/15 09:44:50;;;;;;;2.53;0.80;;;;;;;29.48;27.32;102246.47;5102752;28;20028;-85
2022/07/15 09:47:22;;;;;;;4.40;0.82;;;;;;;29.62;26.79;102254.69;5102640;28;20391;-84
2022/07/15 09:49:51;;;;;;;4.97;1.00;;;;;;;29.71;25.94;102246.03;5106876;28;20024;-85
2022/07/15 09:52:16;;;;;;;;;;;;;;;30.46;29.78;102253.13;5082048;28;20076;-85
2022/07/15 09:54:47;;;;;;;2.17;0.70;;;;;;;30.52;26.55;102248.66;5089374;28;19912;-85
2022/07/15 09:57:15;;;;;;;2.67;0.98;;;;;;;30.32;26.77;102245.97;5074216;28;20383;-85
2022/07/15 09:59:44;;;;;;;4.32;1.10;;;;;;;30.71;25.60;102250.47;5075688;28;20031;-84
2022/07/15 10:02:11;;;;;;;4.32;1.00;;;;;;;30.61;25.18;102250.09;5079733;28;20040;-86
2022/07/15 10:04:37;;;;;;;2.15;0.95;;;;;;;30.88;25.66;102241.75;5070087;28;20050;-88
2022/07/15 10:07:04;;;;;;;2.45;0.77;;;;;;;31.00;24.76;102240.00;5083446;28;20019;-86
2022/07/15 10:09:32;;;;;;;2.42;0.90;;;;;;;31.11;24.45;102233.81;5086506;28;20024;-87
2022/07/15 10:12:03;;;;;;;3.90;0.90;;;;;;;31.14;25.18;102238.88;5079855;28;20031;-87
2022/07/15 10:14:50;;;;;;;5.03;1.10;;;;;;;30.86;24.76;102231.00;5080508;28;20452;-86
2022/07/15 10:17:53;;;;;;;5.82;1.05;;;;;;;31.39;26.10;102232.53;5076126;28;20025;-87
2022/07/15 10:20:40;;;;;;;4.00;0.68;;;;;;;31.43;25.88;102222.81;5082515;28;20035;-88
2022/07/15 10:23:32;;;;;;;2.70;1.00;;;;;;;31.46;25.63;102227.00;5082931;28;20181;-88
2022/07/15 10:26:32;;;;;;;4.38;1.20;;;;;;;31.85;25.63;102225.00;5084305;28;20517;-88
2022/07/15 10:29:03;;;;;;;4.68;0.80;;;;;;;31.18;24.05;102223.63;5077620;28;20032;-88
2022/07/15 10:31:34;;;;;;;3.60;1.08;;;;;;;30.86;24.73;102221.91;5063820;28;20051;-87
2022/07/15 10:34:02;;;;;;;3.45;1.40;;;;;;;30.90;25.18;102217.66;5078343;28;20024;-88
2022/07/15 10:36:46;;;;;;;4.10;1.02;;;;;;;31.42;25.73;102217.53;5079407;28;20086;-88
2022/07/15 10:39:15;;;;;;;3.50;0.90;;;;;;;31.39;24.24;102210.56;5081897;28;20062;-87
2022/07/15 10:42:02;;;;;;;6.55;1.30;;;;;;;31.81;26.04;102210.00;5070832;28;20036;-87
2022/07/15 10:44:29;;;;;;;1.60;0.70;;;;;;;31.85;23.29;102195.59;5081080;28;20029;-87
2022/07/15 10:47:18;;;;;;;2.60;0.70;;;;;;;32.11;24.82;102203.81;5086369;28;20028;-87
2022/07/15 10:49:54;;;;;;;3.85;0.82;;;;;;;31.46;23.32;102203.13;5091095;28;20042;-87
2022/07/15 10:52:23;;;;;;;5.15;1.00;;;;;;;31.31;24.22;102208.09;5075168;28;20051;-88
2022/07/15 10:55:03;;;;;;;3.30;0.70;;;;;;;31.53;25.15;102192.97;5096495;28;20066;-87
2022/07/15 10:57:41;;;;;;;5.30;1.10;;;;;;;31.67;25.32;102195.56;5096311;28;20028;-86
2022/07/15 11:00:41;;;;;;;;;;;;;;;;;;;;;
2022/07/15 11:03:19;;;;;;;5.05;0.90;;;;;;;31.54;25.44;102197.41;5102847;28;20422;-83
2022/07/15 11:05:46;;;;;;;2.40;0.75;;;;;;;31.66;23.82;102182.91;5104771;28;20092;-86
2022/07/15 11:08:33;;;;;;;4.57;1.02;;;;;;;32.13;24.67;102187.94;5097197;28;20356;-84
2022/07/15 11:11:21;;;;;;;2.78;0.80;;;;;;;32.09;24.96;102185.66;5103126;28;20039;-87
2022/07/15 11:13:49;;;;;;;2.42;0.60;;;;;;;31.64;23.52;102190.53;5052187;28;20108;-87
2022/07/15 11:16:19;;;;;;;1.83;0.60;;;;;;;31.98;23.31;102186.38;5094065;28;20533;-88
2022/07/15 11:18:49;;;;;;;2.90;0.77;;;;;;;31.82;24.51;102181.47;5098063;28;20024;-88
2022/07/15 11:21:15;;;;;;;2.15;0.65;;;;;;;32.11;23.64;102181.81;5075667;28;20116;-89
2022/07/15 11:23:45;;;;;;;4.68;0.80;;;;;;;32.05;23.38;102180.81;5081300;28;20032;-89
2022/07/15 11:26:10;;;;;;;4.13;0.70;;;;;;;32.08;22.71;102178.47;5079513;28;20058;-87
2022/07/15 11:28:36;;;;;;;3.88;0.85;;;;;;;32.10;23.01;102178.25;5078789;28;20418;-87
2022/07/15 11:31:02;;;;;;;2.53;0.98;;;;;;;31.90;23.74;102171.03;5084947;28;20020;-87
2022/07/15 11:33:29;;;;;;;0.93;0.50;;;;;;;31.96;23.46;102162.94;5084088;28;20036;-87